Time;durP1;ratioP1;P1;durP2;ratioP2;P2;SDS_P1;SDS_P2;PMS_P1;PMS_P2;Temp;Humidity;BMP_temperature;BMP_pressure;BME280_temperature;BME280_humidity;BME280_pressure;Samples;Min_cycle;Max_cycle;Signal;HPM_P1;HPM_P2
2023/02/10 00:01:58;;;;;;;33.83;12.83;;;-0.30;99.90;;;;;;5092969;28;20020;-74
2023/02/10 00:04:23;;;;;;;30.50;13.07;;;-0.30;99.90;;;;;;5111797;28;20039;-73
2023/02/10 00:06:49;;;;;;;32.43;13.03;;;-0.30;99.90;;;;;;5093076;28;20043;-74
2023/02/10 00:09:15;;;;;;;26.83;12.17;;;-0.20;99.90;;;;;;5094036;28;20106;-74
2023/02/10 00:11:59;;;;;;;26.73;12.03;;;-0.20;99.90;;;;;;5092777;28;20049;-74
2023/02/10 00:14:27;;;;;;;30.30;12.70;;;-0.20;99.90;;;;;;5076256;28;20599;-74
2023/02/10 00:16:53;;;;;;;28.20;12.63;;;-0.10;99.90;;;;;;5076605;28;20331;-73
2023/02/10 00:19:21;;;;;;;29.90;13.07;;;-0.10;99.90;;;;;;5076911;28;20036;-73
2023/02/10 00:21:46;;;;;;;30.23;12.40;;;-0.10;99.90;;;;;;5068123;28;20075;-73
2023/02/10 00:24:12;;;;;;;33.93;13.70;;;-0.10;99.90;;;;;;5056934;28;20028;-74
2023/02/10 00:26:38;;;;;;;26.57;13.13;;;-0.10;99.90;;;;;;5056233;28;20024;-74
2023/02/10 00:29:04;;;;;;;30.37;12.80;;;-0.20;99.90;;;;;;5057331;28;20381;-75
2023/02/10 00:31:29;;;;;;;31.27;12.77;;;-0.20;99.90;;;;;;5075014;28;20466;-74
2023/02/10 00:33:55;;;;;;;29.90;12.63;;;-0.20;99.90;;;;;;5056021;28;20037;-74
2023/02/10 00:36:21;;;;;;;27.97;12.43;;;-0.20;99.90;;;;;;5075129;28;20060;-74
2023/02/10 00:38:47;;;;;;;31.33;13.57;;;-0.20;99.90;;;;;;5056281;28;20021;-73
2023/02/10 00:41:15;;;;;;;27.33;12.63;;;-0.20;99.90;;;;;;5056877;28;20025;-73
2023/02/10 00:43:43;;;;;;;27.90;12.50;;;-0.20;99.90;;;;;;5088521;28;20032;-74
2023/02/10 00:46:09;;;;;;;30.63;12.87;;;-0.10;99.90;;;;;;5076872;28;20092;-73
2023/02/10 00:48:35;;;;;;;30.83;12.60;;;-0.10;99.90;;;;;;5094906;28;20036;-78
2023/02/10 00:51:02;;;;;;;28.67;12.03;;;-0.10;99.90;;;;;;5094202;28;20032;-72
2023/02/10 00:53:27;;;;;;;29.00;13.03;;;0.00;99.90;;;;;;5075766;28;20469;-75
2023/02/10 00:55:53;;;;;;;26.53;12.30;;;-0.10;99.90;;;;;;5076401;28;20039;-75
2023/02/10 00:58:19;;;;;;;30.87;12.50;;;0.00;99.90;;;;;;5095076;28;20065;-75
2023/02/10 01:00:44;;;;;;;29.97;12.13;;;0.00;99.90;;;;;;5076506;28;20107;-76
2023/02/10 01:03:10;;;;;;;30.87;12.70;;;0.00;99.90;;;;;;5095286;28;20103;-75
2023/02/10 01:05:36;;;;;;;26.90;12.00;;;0.00;99.90;;;;;;5094340;28;20031;-78
2023/02/10 01:08:02;;;;;;;28.10;12.60;;;0.00;99.90;;;;;;5076405;28;20052;-74
2023/02/10 01:10:28;;;;;;;31.03;13.20;;;0.00;99.90;;;;;;5094741;28;20028;-75
2023/02/10 01:12:53;;;;;;;31.40;12.33;;;0.00;99.90;;;;;;5075305;28;20040;-75
2023/02/10 01:15:19;;;;;;;25.87;11.77;;;0.00;99.90;;;;;;5076180;28;20119;-74
2023/02/10 01:17:44;;;;;;;31.17;13.00;;;-0.10;99.90;;;;;;5094179;28;20032;-75
2023/02/10 01:20:10;;;;;;;30.57;12.77;;;-0.10;99.90;;;;;;5094448;28;20033;-74
2023/02/10 01:22:36;;;;;;;26.63;12.43;;;-0.10;99.90;;;;;;5072890;28;20044;-79
2023/02/10 01:25:02;;;;;;;29.80;13.20;;;-0.10;99.90;;;;;;5075605;28;20059;-75
2023/02/10 01:27:28;;;;;;;30.07;12.03;;;-0.10;99.90;;;;;;5094253;28;20093;-74
2023/02/10 01:29:54;;;;;;;29.03;12.53;;;0.00;99.90;;;;;;5093471;28;20020;-73
2023/02/10 01:32:19;;;;;;;30.83;12.77;;;0.00;99.90;;;;;;5075977;28;20020;-75
2023/02/10 01:34:45;;;;;;;28.27;13.33;;;0.00;99.90;;;;;;5074883;28;20126;-75
2023/02/10 01:37:11;;;;;;;26.90;12.93;;;0.00;99.90;;;;;;5094074;28;20061;-74
2023/02/10 01:39:36;;;;;;;32.37;13.43;;;0.00;99.90;;;;;;5093874;28;20145;-76
2023/02/10 01:42:02;;;;;;;33.20;13.37;;;0.00;99.90;;;;;;5099130;28;20106;-73
2023/02/10 01:44:28;;;;;;;29.77;13.63;;;0.00;99.90;;;;;;5114462;28;20028;-74
2023/02/10 01:46:55;;;;;;;27.70;12.57;;;0.00;99.90;;;;;;5095118;28;20038;-74
2023/02/10 01:49:28;;;;;;;29.27;13.37;;;0.00;99.90;;;;;;5114324;28;20035;-74
2023/02/10 01:52:01;;;;;;;28.43;13.17;;;0.00;99.90;;;;;;5095591;28;20016;-74
2023/02/10 01:54:39;;;;;;;30.87;12.63;;;-0.10;99.90;;;;;;5095886;28;20032;-73
2023/02/10 01:57:05;;;;;;;31.53;12.93;;;-0.10;99.90;;;;;;5096040;28;20027;-73
2023/02/10 01:59:35;;;;;;;32.10;13.33;;;-0.20;99.90;;;;;;5113941;28;20024;-73
2023/02/10 02:02:06;;;;;;;32.33;12.93;;;-0.30;99.90;;;;;;5095648;28;20024;-73
2023/02/10 02:04:46;;;;;;;29.58;13.15;;;-0.50;99.90;;;;;;5095912;28;20126;-73
2023/02/10 02:07:12;;;;;;;27.83;12.70;;;-0.40;99.90;;;;;;5095717;28;20032;-73
2023/02/10 02:09:38;;;;;;;31.43;13.90;;;-0.40;99.90;;;;;;5113047;28;20470;-78
2023/02/10 02:12:12;;;;;;;28.90;12.37;;;-0.50;99.90;;;;;;5095749;28;20507;-74
2023/02/10 02:14:52;;;;;;;29.57;13.40;;;-0.50;99.90;;;;;;5113094;28;20111;-76
2023/02/10 02:17:51;;;;;;;33.03;14.63;;;-0.40;99.90;;;;;;5095501;28;20055;-73
2023/02/10 02:20:41;;;;;;;35.70;14.43;;;-0.40;99.90;;;;;;5095856;28;20023;-74
2023/02/10 02:23:16;;;;;;;33.63;14.43;;;-0.40;99.90;;;;;;5076172;28;20056;-73
2023/02/10 02:26:18;;;;;;;31.90;14.47;;;-0.40;99.90;;;;;;5093058;28;20031;-74
2023/02/10 02:32:22;;;;;;;31.67;14.90;;;-0.40;99.90;;;;;;5093031;28;20038;-73
2023/02/10 02:34:53;;;;;;;31.65;14.30;;;-0.50;99.90;;;;;;5092179;28;20038;-73
2023/02/10 02:37:41;;;;;;;32.70;15.20;;;-0.50;99.90;;;;;;5093099;28;20036;-73
2023/02/10 02:40:08;;;;;;;35.17;15.40;;;-0.40;99.90;;;;;;5075098;28;20032;-73
2023/02/10 02:42:34;;;;;;;34.17;15.57;;;-0.50;99.90;;;;;;5092635;28;20461;-73
2023/02/10 02:45:10;;;;;;;33.30;16.10;;;-0.50;99.90;;;;;;5074013;28;20035;-73
2023/02/10 02:48:03;;;;;;;35.30;16.17;;;-0.50;99.90;;;;;;5074654;28;20097;-74
2023/02/10 02:50:37;;;;;;;40.03;16.27;;;-0.50;99.90;;;;;;5074970;28;20027;-73
2023/02/10 02:53:09;;;;;;;35.47;16.50;;;-0.50;99.90;;;;;;5092913;28;20354;-74
2023/02/10 02:55:47;;;;;;;33.17;15.52;;;-0.60;99.90;;;;;;5074865;28;20529;-74
2023/02/10 02:58:24;;;;;;;35.87;16.30;;;-0.60;99.90;;;;;;5093129;28;20036;-74
2023/02/10 03:00:50;;;;;;;37.60;16.03;;;-0.50;99.90;;;;;;5074410;28;20024;-74
2023/02/10 03:03:17;;;;;;;34.17;15.53;;;-0.60;99.90;;;;;;5093115;28;20032;-73
2023/02/10 03:05:42;;;;;;;35.60;15.93;;;-0.60;99.90;;;;;;5074189;28;20081;-74
2023/02/10 03:08:08;;;;;;;35.07;15.40;;;-0.60;99.90;;;;;;5074664;28;20052;-74
2023/02/10 03:10:34;;;;;;;37.17;16.37;;;-0.70;99.90;;;;;;5074658;28;20426;-73
2023/02/10 03:12:59;;;;;;;35.47;15.67;;;-0.70;99.90;;;;;;5092221;28;20050;-74
2023/02/10 03:15:25;;;;;;;38.27;16.63;;;-0.70;99.90;;;;;;5074634;28;20358;-74
2023/02/10 03:17:50;;;;;;;38.83;16.37;;;-0.80;99.90;;;;;;5092269;28;20477;-74
2023/02/10 03:20:16;;;;;;;37.67;17.80;;;-0.80;99.90;;;;;;5074350;28;20032;-74
2023/02/10 03:22:42;;;;;;;38.77;16.53;;;-0.80;99.90;;;;;;5089320;28;20082;-76
2023/02/10 03:25:08;;;;;;;37.97;16.67;;;-0.80;99.90;;;;;;5112517;28;20468;-73
2023/02/10 03:27:34;;;;;;;36.23;16.30;;;-0.80;99.90;;;;;;5096586;28;20059;-73
2023/02/10 03:29:59;;;;;;;41.03;16.60;;;-0.80;99.90;;;;;;5097420;28;20587;-73
2023/02/10 03:32:25;;;;;;;38.40;17.20;;;-0.80;99.90;;;;;;5095331;28;20068;-73
2023/02/10 03:34:50;;;;;;;35.07;16.60;;;-0.80;99.90;;;;;;5112510;28;20024;-73
2023/02/10 03:37:16;;;;;;;36.23;16.97;;;-0.90;99.90;;;;;;5095118;28;20028;-74
2023/02/10 03:39:42;;;;;;;37.00;16.57;;;-0.90;99.90;;;;;;5094411;28;20525;-78
2023/02/10 03:42:08;;;;;;;35.37;17.07;;;-0.90;99.90;;;;;;5112739;28;20107;-73
2023/02/10 03:44:33;;;;;;;40.47;18.07;;;-0.90;99.90;;;;;;5094805;28;20055;-73
2023/02/10 03:46:59;;;;;;;42.97;17.53;;;-0.90;99.90;;;;;;5095461;28;20752;-74
2023/02/10 03:49:25;;;;;;;45.20;17.73;;;-0.90;99.90;;;;;;5098847;28;20023;-74
2023/02/10 03:51:50;;;;;;;42.53;18.27;;;-0.90;99.90;;;;;;5097779;28;20506;-73
2023/02/10 03:54:16;;;;;;;42.67;17.50;;;-0.90;99.90;;;;;;5098365;28;20076;-74
2023/02/10 03:56:41;;;;;;;39.23;17.87;;;-0.90;99.90;;;;;;5115926;28;20535;-79
2023/02/10 03:59:07;;;;;;;42.60;17.87;;;-0.90;99.90;;;;;;5097974;28;20118;-73
2023/02/10 04:01:33;;;;;;;38.40;17.67;;;-1.00;99.90;;;;;;5116592;28;20384;-73
2023/02/10 04:03:59;;;;;;;42.53;18.77;;;-1.00;99.90;;;;;;5097695;28;20036;-74
2023/02/10 04:06:25;;;;;;;40.27;17.67;;;-1.00;99.90;;;;;;5098396;28;20024;-74
2023/02/10 04:08:50;;;;;;;48.30;19.03;;;-1.00;99.90;;;;;;5097819;28;20483;-74
2023/02/10 04:11:16;;;;;;;39.97;17.50;;;-1.00;99.90;;;;;;5098414;28;20540;-73
2023/02/10 04:13:42;;;;;;;41.17;17.77;;;-1.00;99.90;;;;;;5116440;28;20030;-75
2023/02/10 04:16:11;;;;;;;42.13;18.33;;;-1.10;99.90;;;;;;5115950;28;20031;-73
2023/02/10 04:18:38;;;;;;;43.20;18.47;;;-1.00;99.90;;;;;;5115973;28;20027;-72
2023/02/10 04:21:05;;;;;;;42.80;17.93;;;-0.90;99.90;;;;;;5096812;28;20088;-73
2023/02/10 04:23:31;;;;;;;41.27;18.00;;;-1.00;99.90;;;;;;5116096;28;20031;-73
2023/02/10 04:25:56;;;;;;;40.00;17.47;;;-1.00;99.90;;;;;;5097227;28;20030;-73
2023/02/10 04:28:22;;;;;;;38.07;17.07;;;-1.00;99.90;;;;;;5097505;28;20028;-73
2023/02/10 04:30:52;;;;;;;41.57;17.93;;;-1.00;99.90;;;;;;5097162;28;20030;-74
2023/02/10 04:33:18;;;;;;;40.97;17.40;;;-1.10;99.90;;;;;;5097416;28;20028;-73
2023/02/10 04:35:46;;;;;;;38.83;17.07;;;-1.10;99.90;;;;;;5097476;28;20097;-75
2023/02/10 04:38:12;;;;;;;40.87;17.40;;;-1.10;99.90;;;;;;5097542;28;20024;-73
2023/02/10 04:40:39;;;;;;;38.10;17.47;;;-1.10;99.90;;;;;;5097463;28;20030;-73
2023/02/10 04:43:05;;;;;;;42.50;16.90;;;-1.10;99.90;;;;;;5115213;28;20514;-76
2023/02/10 04:45:31;;;;;;;44.47;19.10;;;-1.10;99.90;;;;;;5115689;28;20064;-73
2023/02/10 04:47:56;;;;;;;41.30;16.67;;;-1.10;99.90;;;;;;5115343;28;20031;-74
2023/02/10 04:50:22;;;;;;;43.17;17.23;;;-1.00;99.90;;;;;;5097429;28;20397;-73
2023/02/10 04:52:47;;;;;;;36.73;17.33;;;-1.10;99.90;;;;;;5096701;28;20038;-76
2023/02/10 04:55:13;;;;;;;41.97;17.93;;;-1.00;99.90;;;;;;5097156;28;20034;-73
2023/02/10 04:57:39;;;;;;;36.40;16.97;;;-1.00;99.90;;;;;;5096388;28;20024;-74
2023/02/10 05:00:05;;;;;;;40.47;18.27;;;-1.00;99.90;;;;;;5096085;28;20032;-73
2023/02/10 05:02:30;;;;;;;41.03;17.20;;;-1.00;99.90;;;;;;5096766;28;20028;-73
2023/02/10 05:04:56;;;;;;;40.90;17.30;;;-1.10;99.90;;;;;;5119776;28;20034;-74
2023/02/10 05:07:21;;;;;;;41.90;18.30;;;-1.10;99.90;;;;;;5112182;28;20024;-73
2023/02/10 05:09:47;;;;;;;41.03;18.50;;;-1.10;99.90;;;;;;5111341;28;20023;-74
2023/02/10 05:12:13;;;;;;;42.50;17.43;;;-1.10;99.90;;;;;;5097136;28;20061;-73
2023/02/10 05:14:38;;;;;;;43.90;19.03;;;-1.10;99.90;;;;;;5096390;28;20031;-73
2023/02/10 05:17:04;;;;;;;42.90;17.90;;;-1.10;99.90;;;;;;5096271;28;20028;-74
2023/02/10 05:19:29;;;;;;;39.80;17.60;;;-1.10;99.90;;;;;;5096654;28;20032;-73
2023/02/10 05:21:55;;;;;;;40.53;17.43;;;-1.20;99.90;;;;;;5095812;28;20058;-74
2023/02/10 05:24:20;;;;;;;37.20;16.77;;;-1.20;99.90;;;;;;5114930;28;20116;-74
2023/02/10 05:26:46;;;;;;;39.60;16.63;;;-1.10;99.90;;;;;;5096195;28;20448;-78
2023/02/10 05:29:12;;;;;;;39.80;16.73;;;-1.20;99.90;;;;;;5114754;28;20031;-74
2023/02/10 05:31:37;;;;;;;36.83;17.10;;;-1.20;99.90;;;;;;5096534;28;20053;-74
2023/02/10 05:34:03;;;;;;;45.40;18.03;;;-1.20;99.90;;;;;;5114235;28;20372;-74
2023/02/10 05:36:28;;;;;;;38.20;17.37;;;-1.10;99.90;;;;;;5096046;28;20047;-73
2023/02/10 05:41:38;;;;;;;41.97;18.00;;;-1.10;99.90;;;;;;5114247;28;20046;-74
2023/02/10 05:44:04;;;;;;;37.03;17.43;;;-1.10;99.90;;;;;;5095434;28;20464;-74
2023/02/10 05:46:29;;;;;;;40.47;18.67;;;-1.10;99.90;;;;;;5114086;28;20076;-73
2023/02/10 05:48:55;;;;;;;40.03;16.43;;;-1.10;99.90;;;;;;5095165;28;20032;-74
2023/02/10 05:51:21;;;;;;;43.27;17.97;;;-1.10;99.90;;;;;;5113768;28;20055;-73
2023/02/10 05:53:46;;;;;;;43.97;18.10;;;-1.10;99.90;;;;;;5113896;28;20034;-74
2023/02/10 05:56:12;;;;;;;35.90;16.27;;;-1.20;99.90;;;;;;5095157;28;20034;-73
2023/02/10 05:58:37;;;;;;;40.57;17.87;;;-1.20;99.90;;;;;;5095782;28;20024;-74
2023/02/10 06:01:08;;;;;;;38.70;17.80;;;-1.10;99.90;;;;;;5113283;28;20107;-74
2023/02/10 06:03:34;;;;;;;42.67;19.13;;;-1.20;99.90;;;;;;5113683;28;20119;-74
2023/02/10 06:06:00;;;;;;;46.97;19.07;;;-1.20;99.90;;;;;;5095017;28;20079;-74
2023/02/10 06:08:26;;;;;;;41.13;18.57;;;-1.10;99.90;;;;;;5113489;28;20031;-74
2023/02/10 06:10:52;;;;;;;43.73;19.43;;;-1.20;99.90;;;;;;5094794;28;20028;-74
2023/02/10 06:13:18;;;;;;;44.53;19.83;;;-1.20;99.90;;;;;;5095457;28;20062;-73
2023/02/10 06:15:44;;;;;;;40.63;18.37;;;-1.30;99.90;;;;;;5113405;28;20104;-73
2023/02/10 06:18:09;;;;;;;40.63;18.03;;;-1.20;99.90;;;;;;5094624;28;20579;-73
2023/02/10 06:20:35;;;;;;;41.50;19.27;;;-1.30;99.90;;;;;;5095289;28;20055;-74
2023/02/10 06:23:01;;;;;;;43.17;18.93;;;-1.30;99.90;;;;;;5112922;28;20131;-74
2023/02/10 06:25:26;;;;;;;42.90;17.93;;;-1.30;99.90;;;;;;5095398;28;20109;-73
2023/02/10 06:27:52;;;;;;;45.67;18.57;;;-1.30;99.90;;;;;;5095109;28;20461;-76
2023/02/10 06:30:17;;;;;;;39.47;18.67;;;-1.30;99.90;;;;;;5095111;28;20030;-74
2023/02/10 06:32:43;;;;;;;44.33;19.27;;;-1.30;99.90;;;;;;5113334;28;20077;-74
2023/02/10 06:35:09;;;;;;;42.37;18.67;;;-1.30;99.90;;;;;;5112794;28;20036;-74
2023/02/10 06:37:35;;;;;;;45.23;19.40;;;-1.30;99.90;;;;;;5095252;28;20030;-73
2023/02/10 06:40:03;;;;;;;42.53;18.50;;;-1.30;99.90;;;;;;5112649;28;20066;-73
2023/02/10 06:42:28;;;;;;;46.43;19.70;;;-1.30;99.90;;;;;;5113458;28;20111;-73
2023/02/10 06:44:54;;;;;;;41.77;18.53;;;-1.30;99.90;;;;;;5094515;28;20063;-77
2023/02/10 06:47:19;;;;;;;45.13;19.50;;;-1.30;99.90;;;;;;5113156;28;20423;-73
2023/02/10 06:49:45;;;;;;;45.70;19.87;;;-1.30;99.90;;;;;;5113087;28;20031;-74
2023/02/10 06:52:10;;;;;;;43.83;19.97;;;-1.30;99.90;;;;;;5094628;28;20024;-73
2023/02/10 06:54:36;;;;;;;40.17;19.37;;;-1.30;99.90;;;;;;5095012;28;20116;-74
2023/02/10 06:57:01;;;;;;;45.70;20.43;;;-1.20;99.90;;;;;;5094575;28;20034;-74
2023/02/10 06:59:27;;;;;;;50.87;19.93;;;-1.30;99.90;;;;;;5095021;28;20038;-74
2023/02/10 07:01:59;;;;;;;48.93;20.73;;;-1.30;99.90;;;;;;5094477;28;20119;-77
2023/02/10 07:04:29;;;;;;;43.80;19.77;;;-1.30;99.90;;;;;;5095150;28;20031;-73
2023/02/10 07:06:55;;;;;;;41.60;18.40;;;-1.30;99.90;;;;;;5085016;28;20028;-74
2023/02/10 07:09:21;;;;;;;49.23;18.87;;;-1.30;99.90;;;;;;5092467;28;20051;-74
2023/02/10 07:11:47;;;;;;;42.07;19.83;;;-1.30;99.90;;;;;;5076777;28;20465;-74
2023/02/10 07:14:13;;;;;;;40.97;18.17;;;-1.30;99.90;;;;;;5085937;28;20500;-74
2023/02/10 07:16:39;;;;;;;46.80;19.17;;;-1.30;99.90;;;;;;5094681;28;20071;-73
2023/02/10 07:19:04;;;;;;;44.10;19.30;;;-1.30;99.90;;;;;;5094007;28;20045;-74
2023/02/10 07:21:30;;;;;;;41.67;18.57;;;-1.30;99.90;;;;;;5113050;28;20089;-74
2023/02/10 07:23:56;;;;;;;47.63;19.50;;;-1.40;99.90;;;;;;5101414;28;20049;-76
2023/02/10 07:26:22;;;;;;;43.53;18.43;;;-1.40;99.90;;;;;;5105678;28;20020;-74
2023/02/10 07:28:47;;;;;;;45.90;19.83;;;-1.40;99.90;;;;;;5084850;28;20067;-74
2023/02/10 07:31:13;;;;;;;40.77;19.43;;;-1.40;99.90;;;;;;5101401;28;20669;-74
2023/02/10 07:33:39;;;;;;;42.97;19.73;;;-1.40;99.90;;;;;;5095920;28;20031;-74
2023/02/10 07:36:06;;;;;;;43.07;19.20;;;-1.30;99.90;;;;;;5116432;28;20027;-74
2023/02/10 07:38:32;;;;;;;50.00;20.07;;;-1.20;99.90;;;;;;5098351;28;20027;-74
2023/02/10 07:40:59;;;;;;;48.03;20.30;;;-1.30;99.90;;;;;;5085584;28;20165;-75
2023/02/10 07:43:24;;;;;;;51.97;20.13;;;-1.20;99.90;;;;;;5077918;28;20515;-74
2023/02/10 07:45:50;;;;;;;44.20;19.63;;;-1.20;99.90;;;;;;5078026;28;20024;-74
2023/02/10 07:48:17;;;;;;;52.83;21.43;;;-1.20;99.90;;;;;;5084857;28;20051;-74
2023/02/10 07:50:43;;;;;;;48.87;19.83;;;-1.10;99.90;;;;;;5116776;28;20024;-74
2023/02/10 07:53:09;;;;;;;52.23;20.00;;;-1.10;99.90;;;;;;5097769;28;20464;-75
2023/02/10 07:55:37;;;;;;;47.57;20.93;;;-1.10;99.90;;;;;;5081288;28;20039;-75
2023/02/10 07:58:03;;;;;;;43.67;19.70;;;-1.00;99.90;;;;;;5116256;28;20035;-74
2023/02/10 08:00:29;;;;;;;49.90;19.83;;;-1.00;99.90;;;;;;5097848;28;20055;-74
2023/02/10 08:02:55;;;;;;;46.27;19.37;;;-1.00;99.90;;;;;;5097450;28;20074;-79
2023/02/10 08:05:21;;;;;;;47.20;19.30;;;-0.90;99.90;;;;;;5116058;28;20035;-74
2023/02/10 08:07:47;;;;;;;43.93;19.63;;;-0.90;99.90;;;;;;5096590;28;20024;-74
2023/02/10 08:10:12;;;;;;;47.40;19.77;;;-0.90;99.90;;;;;;5082893;28;20176;-74
2023/02/10 08:12:38;;;;;;;48.80;21.47;;;-0.80;99.90;;;;;;5097512;28;20028;-74
2023/02/10 08:15:06;;;;;;;49.70;22.07;;;-0.80;99.90;;;;;;5097343;28;20031;-75
2023/02/10 08:17:31;;;;;;;45.73;20.50;;;-0.70;99.90;;;;;;5116091;28;20031;-75
2023/02/10 08:19:57;;;;;;;47.90;21.03;;;-0.70;99.90;;;;;;5097307;28;20028;-77
2023/02/10 08:22:22;;;;;;;50.13;21.43;;;-0.70;99.90;;;;;;5097616;28;20047;-74
2023/02/10 08:24:48;;;;;;;45.10;20.87;;;-0.60;99.90;;;;;;5104892;28;20028;-74
2023/02/10 08:27:14;;;;;;;50.10;20.53;;;-0.60;99.90;;;;;;5109233;28;20034;-74
2023/02/10 08:29:40;;;;;;;48.77;21.53;;;-0.50;99.90;;;;;;5097490;28;20028;-74
2023/02/10 08:32:05;;;;;;;49.63;21.10;;;-0.40;99.90;;;;;;5081247;28;20028;-74
2023/02/10 08:34:31;;;;;;;47.10;21.07;;;-0.40;99.90;;;;;;5115687;28;20107;-74
2023/02/10 08:36:57;;;;;;;46.53;19.97;;;-0.30;99.90;;;;;;5096880;28;20019;-76
2023/02/10 08:39:22;;;;;;;49.37;21.37;;;-0.30;99.90;;;;;;5099877;28;20134;-75
2023/02/10 08:41:48;;;;;;;45.27;20.57;;;-0.20;99.90;;;;;;5093330;28;20069;-75
2023/02/10 08:44:14;;;;;;;47.00;20.10;;;-0.20;99.90;;;;;;5081973;28;20072;-76
2023/02/10 08:46:40;;;;;;;49.93;20.83;;;-0.20;99.90;;;;;;5105306;28;20051;-75
2023/02/10 08:49:06;;;;;;;47.07;20.70;;;-0.10;99.90;;;;;;5076262;28;20461;-75
2023/02/10 08:51:32;;;;;;;45.30;19.93;;;-0.10;99.90;;;;;;5076971;28;20028;-75
2023/02/10 08:54:00;;;;;;;47.23;20.40;;;0.00;99.90;;;;;;5096326;28;20040;-75
2023/02/10 08:56:26;;;;;;;43.47;19.50;;;0.10;99.90;;;;;;5088905;28;20440;-75
2023/02/10 08:58:52;;;;;;;49.53;20.37;;;0.10;99.90;;;;;;5105746;28;20028;-74
2023/02/10 09:01:21;;;;;;;45.50;19.77;;;0.20;99.90;;;;;;5096531;28;20023;-74
2023/02/10 09:03:47;;;;;;;42.20;18.03;;;0.30;99.90;;;;;;5079714;28;20028;-75
2023/02/10 09:06:15;;;;;;;46.93;20.23;;;0.40;99.90;;;;;;5109186;28;20020;-75
2023/02/10 09:08:42;;;;;;;48.70;20.00;;;0.40;99.90;;;;;;5085741;28;20031;-75
2023/02/10 09:11:07;;;;;;;44.27;19.40;;;0.50;99.90;;;;;;5103757;28;20032;-75
2023/02/10 09:13:33;;;;;;;46.73;20.17;;;0.50;99.90;;;;;;5104817;28;20032;-75
2023/02/10 09:15:58;;;;;;;42.20;19.33;;;0.60;99.90;;;;;;5085009;28;20032;-76
2023/02/10 09:18:24;;;;;;;39.50;18.50;;;0.70;99.90;;;;;;5087172;28;20112;-75
2023/02/10 09:20:50;;;;;;;49.20;20.07;;;0.70;99.90;;;;;;5103550;28;20043;-75
2023/02/10 09:23:15;;;;;;;44.93;19.43;;;0.70;99.90;;;;;;5101521;28;20051;-75
2023/02/10 09:25:41;;;;;;;42.03;18.70;;;0.70;99.90;;;;;;5082529;28;20051;-74
2023/02/10 09:28:08;;;;;;;49.97;19.80;;;0.80;99.90;;;;;;5102461;28;20024;-75
2023/02/10 09:30:34;;;;;;;45.03;19.50;;;0.80;99.90;;;;;;5086678;28;20020;-75
2023/02/10 09:32:59;;;;;;;45.40;19.83;;;0.80;99.90;;;;;;5084027;28;20020;-75
2023/02/10 09:35:25;;;;;;;45.27;19.50;;;0.90;99.90;;;;;;5085811;28;20385;-75
2023/02/10 09:37:50;;;;;;;44.60;20.23;;;0.90;99.90;;;;;;5083433;28;20040;-75
2023/02/10 09:40:26;;;;;;;41.60;19.43;;;1.00;99.90;;;;;;5087088;28;20519;-75
2023/02/10 09:43:16;;;;;;;47.57;20.00;;;1.20;99.90;;;;;;5102734;28;20095;-78
2023/02/10 09:45:42;;;;;;;41.03;20.53;;;1.30;99.90;;;;;;5102065;28;20058;-76
2023/02/10 09:48:51;;;;;;;42.17;19.80;;;1.30;99.90;;;;;;5082600;28;20023;-75
2023/02/10 09:51:38;;;;;;;49.13;21.73;;;1.30;99.90;;;;;;5102571;28;20019;-76
2023/02/10 09:54:09;;;;;;;46.10;20.93;;;1.40;99.90;;;;;;5083885;28;20027;-76
2023/02/10 09:56:35;;;;;;;47.53;20.52;;;1.50;99.90;;;;;;5084034;28;20506;-74
2023/02/10 09:59:02;;;;;;;45.60;20.43;;;1.50;99.90;;;;;;5100909;28;20043;-77
2023/02/10 10:01:38;;;;;;;50.10;20.60;;;1.60;99.90;;;;;;5084108;28;20035;-74
2023/02/10 10:04:17;;;;;;;46.73;20.00;;;1.60;99.90;;;;;;5081764;28;20080;-75
2023/02/10 10:06:52;;;;;;;44.10;19.67;;;1.60;99.90;;;;;;5103200;28;20027;-76
2023/02/10 10:09:35;;;;;;;47.50;19.93;;;1.70;99.90;;;;;;5084274;28;20488;-75
2023/02/10 10:12:01;;;;;;;44.70;19.93;;;1.80;99.90;;;;;;5084091;28;20059;-75
2023/02/10 10:14:33;;;;;;;43.00;20.07;;;1.80;99.90;;;;;;5084481;28;20074;-76
2023/02/10 10:17:22;;;;;;;47.83;20.77;;;1.90;99.90;;;;;;5082819;28;20092;-74
2023/02/10 10:20:16;;;;;;;42.07;19.27;;;2.00;99.90;;;;;;5084014;28;20035;-75
2023/02/10 10:22:54;;;;;;;48.93;20.60;;;2.10;99.90;;;;;;5083993;28;20044;-75
2023/02/10 10:25:57;;;;;;;44.53;20.10;;;2.20;99.90;;;;;;5084065;28;20024;-75
2023/02/10 10:28:47;;;;;;;42.07;18.73;;;2.20;99.90;;;;;;5084097;28;20480;-77
2023/02/10 10:31:26;;;;;;;44.20;19.27;;;2.30;99.90;;;;;;5083868;28;20459;-74
2023/02/10 10:34:15;;;;;;;40.20;18.70;;;2.40;99.90;;;;;;5100641;28;20134;-75
2023/02/10 10:36:45;;;;;;;44.77;19.23;;;2.50;99.90;;;;;;5069790;28;20040;-77
2023/02/10 10:39:13;;;;;;;39.77;18.10;;;2.50;99.90;;;;;;5083030;28;20023;-79
2023/02/10 10:41:40;;;;;;;39.07;18.53;;;2.50;99.90;;;;;;5084808;28;20023;-77
2023/02/10 10:44:08;;;;;;;42.60;17.37;;;2.60;99.90;;;;;;5101971;28;20469;-77
2023/02/10 10:46:46;;;;;;;43.90;18.27;;;2.70;99.90;;;;;;5083337;28;20362;-77
2023/02/10 10:49:12;;;;;;;36.57;17.23;;;2.70;99.90;;;;;;5083674;28;20404;-79
2023/02/10 10:51:38;;;;;;;39.70;18.27;;;2.80;99.90;;;;;;5084018;28;20027;-78
2023/02/10 10:54:08;;;;;;;41.90;17.63;;;2.80;99.90;;;;;;5082750;28;20439;-78
2023/02/10 10:56:44;;;;;;;44.20;18.47;;;2.90;99.90;;;;;;5083873;28;20034;-78
2023/02/10 10:59:12;;;;;;;44.83;18.13;;;2.90;99.90;;;;;;5083202;28;20392;-78
2023/02/10 11:01:41;;;;;;;42.23;20.03;;;3.10;99.90;;;;;;5102091;28;20046;-77
2023/02/10 11:04:14;;;;;;;41.33;19.43;;;3.20;99.90;;;;;;5101642;28;20097;-78
2023/02/10 11:06:42;;;;;;;38.20;16.87;;;3.30;99.90;;;;;;5083550;28;20498;-76
2023/02/10 11:09:40;;;;;;;37.27;16.10;;;3.40;99.90;;;;;;5082811;28;20028;-77
2023/02/10 11:12:20;;;;;;;34.23;15.90;;;3.40;99.90;;;;;;5103147;28;20055;-79
2023/02/10 11:14:49;;;;;;;37.27;17.77;;;3.40;99.90;;;;;;5100687;28;20548;-74
2023/02/10 11:17:39;;;;;;;37.90;17.37;;;3.50;99.90;;;;;;5083597;28;20032;-75
2023/02/10 11:20:05;;;;;;;38.20;17.90;;;3.50;99.90;;;;;;5077898;28;20032;-78
2023/02/10 11:22:30;;;;;;;42.93;17.60;;;3.60;99.90;;;;;;5088701;28;20412;-76
2023/02/10 11:25:05;;;;;;;42.90;18.53;;;3.60;99.90;;;;;;5083099;28;20531;-76
2023/02/10 11:27:31;;;;;;;36.17;16.93;;;3.70;99.90;;;;;;5080463;28;20534;-76
2023/02/10 11:29:58;;;;;;;32.87;16.67;;;3.70;99.90;;;;;;5090627;28;20023;-79
2023/02/10 11:32:34;;;;;;;39.43;17.53;;;3.70;99.90;;;;;;5079066;28;20042;-77
2023/02/10 11:35:03;;;;;;;44.80;17.33;;;3.80;99.90;;;;;;5094087;28;20114;-79
2023/02/10 11:37:28;;;;;;;39.67;16.93;;;3.90;99.90;;;;;;5098484;28;20039;-75
2023/02/10 11:39:56;;;;;;;35.43;16.70;;;3.90;99.90;;;;;;5090457;28;20028;-76
2023/02/10 11:42:34;;;;;;;34.87;16.90;;;3.90;99.90;;;;;;5089709;28;20016;-76
2023/02/10 11:45:25;;;;;;;36.57;16.27;;;3.90;99.90;;;;;;5081307;28;20028;-82
2023/02/10 11:48:16;;;;;;;35.75;16.40;;;4.00;99.90;;;;;;5083914;28;20028;-79
2023/02/10 11:50:42;;;;;;;32.00;15.03;;;4.10;99.90;;;;;;5102223;28;20439;-78
2023/02/10 11:53:26;;;;;;;37.57;15.37;;;4.20;99.90;;;;;;5082565;28;20035;-76
2023/02/10 11:56:20;;;;;;;34.17;15.03;;;4.30;99.90;;;;;;5081824;28;20031;-78
2023/02/10 11:59:22;;;;;;;33.87;15.20;;;4.30;99.90;;;;;;5099012;28;20023;-75
2023/02/10 12:01:50;;;;;;;;;;;4.40;99.90;;;;;;5073182;28;20487;-74
2023/02/10 12:04:37;;;;;;;35.13;14.93;;;4.50;99.90;;;;;;5081560;28;20381;-75
2023/02/10 12:07:06;;;;;;;29.70;14.57;;;4.50;99.90;;;;;;5083333;28;20126;-75
2023/02/10 12:09:54;;;;;;;35.33;13.50;;;4.50;99.90;;;;;;5086620;28;20094;-78
2023/02/10 12:12:38;;;;;;;31.37;14.47;;;4.60;99.90;;;;;;5085604;28;20587;-77
2023/02/10 12:15:23;;;;;;;33.20;13.87;;;4.60;99.90;;;;;;5104977;28;20044;-76
2023/02/10 12:18:02;;;;;;;31.53;13.50;;;4.70;99.90;;;;;;5104280;28;20032;-77
2023/02/10 12:20:42;;;;;;;31.30;14.43;;;4.90;99.90;;;;;;5081992;28;20101;-74
2023/02/10 12:23:33;;;;;;;29.03;13.77;;;5.10;99.90;;;;;;5086919;28;20175;-76
2023/02/10 12:26:14;;;;;;;33.33;14.45;;;5.30;99.90;;;;;;5095957;28;20094;-76
2023/02/10 12:29:23;;;;;;;30.33;13.53;;;5.50;99.90;;;;;;5077129;28;20042;-75
2023/02/10 12:32:18;;;;;;;28.97;13.27;;;5.70;99.50;;;;;;5093105;28;20481;-75
2023/02/10 12:35:18;;;;;;;29.67;14.07;;;5.90;98.60;;;;;;5081330;28;20400;-76
2023/02/10 12:38:04;;;;;;;31.00;14.47;;;6.20;97.40;;;;;;5092128;28;20039;-75
2023/02/10 12:41:11;;;;;;;32.20;14.00;;;6.50;97.40;;;;;;5097075;28;20035;-75
2023/02/10 12:43:58;;;;;;;28.50;13.87;;;6.80;96.30;;;;;;5110000;28;20039;-75
2023/02/10 12:46:30;;;;;;;30.33;13.87;;;7.10;96.00;;;;;;5099095;28;20031;-75
2023/02/10 12:49:26;;;;;;;31.90;14.45;;;7.30;94.20;;;;;;5087774;28;20028;-77
2023/02/10 12:52:12;;;;;;;32.10;14.53;;;7.40;93.50;;;;;;5111523;28;20380;-77